Time;durP1;ratioP1;P1;durP2;ratioP2;P2;SDS_P1;SDS_P2;PMS_P1;PMS_P2;Temp;Humidity;BMP_temperature;BMP_pressure;BME280_temperature;BME280_humidity;BME280_pressure;Samples;Min_cycle;Max_cycle;Signal;HPM_P1;HPM_P2
2022/01/31 00:00:55;;;;;;;6.13;3.40;;;17.40;52.10;;;;;;5052275;28;20575;-58
2022/01/31 00:03:21;;;;;;;6.95;3.08;;;17.40;52.00;;;;;;5052461;28;20186;-59
2022/01/31 00:05:47;;;;;;;5.82;3.15;;;17.40;52.10;;;;;;5051862;28;20662;-58
2022/01/31 00:08:14;;;;;;;5.80;3.10;;;17.40;52.70;;;;;;5052183;28;20219;-59
2022/01/31 00:10:40;;;;;;;5.53;3.25;;;17.30;52.10;;;;;;5052411;28;20183;-59
2022/01/31 00:13:13;;;;;;;6.03;3.25;;;17.30;52.00;;;;;;5051379;28;20184;-59
2022/01/31 00:15:42;;;;;;;4.15;2.72;;;17.30;52.00;;;;;;5052457;28;20171;-60
2022/01/31 00:18:07;;;;;;;4.82;3.00;;;17.30;52.10;;;;;;5052078;28;20206;-59
2022/01/31 00:20:33;;;;;;;6.00;3.38;;;17.30;52.00;;;;;;5051504;28;20217;-60
2022/01/31 00:22:58;;;;;;;6.85;3.38;;;17.30;52.00;;;;;;5050800;28;20179;-59
2022/01/31 00:25:24;;;;;;;7.50;3.45;;;17.30;52.00;;;;;;5052132;28;20662;-59
2022/01/31 00:27:49;;;;;;;6.53;3.35;;;17.30;52.10;;;;;;5051546;28;20662;-58
2022/01/31 00:30:15;;;;;;;5.13;3.15;;;17.20;52.10;;;;;;5052195;28;20171;-58
2022/01/31 00:32:41;;;;;;;4.93;3.30;;;17.20;52.00;;;;;;5055090;28;20183;-59
2022/01/31 00:35:07;;;;;;;7.32;3.55;;;17.20;52.00;;;;;;5054780;28;20175;-59
2022/01/31 00:37:32;;;;;;;5.80;3.28;;;17.20;52.00;;;;;;5055786;28;20225;-59
2022/01/31 00:39:58;;;;;;;4.15;2.97;;;17.20;51.90;;;;;;5055304;28;20175;-59
2022/01/31 00:42:28;;;;;;;4.78;3.47;;;17.10;51.80;;;;;;5055284;28;20201;-59
2022/01/31 00:44:56;;;;;;;5.55;3.22;;;17.20;51.90;;;;;;5055441;28;20213;-58
2022/01/31 00:47:27;;;;;;;5.55;3.20;;;17.10;51.90;;;;;;5054982;28;20207;-59
2022/01/31 00:50:03;;;;;;;6.20;2.95;;;17.10;51.80;;;;;;5055365;28;20534;-59
2022/01/31 00:52:29;;;;;;;6.38;3.83;;;17.10;51.90;;;;;;5055222;28;20309;-59
2022/01/31 00:54:54;;;;;;;5.55;3.00;;;17.10;51.80;;;;;;5054368;28;20510;-58
2022/01/31 00:57:20;;;;;;;4.00;2.80;;;17.10;51.90;;;;;;5055511;28;20167;-59
2022/01/31 00:59:49;;;;;;;5.63;3.15;;;17.10;51.90;;;;;;5055526;28;20174;-59
2022/01/31 01:02:14;;;;;;;5.45;2.90;;;17.10;51.90;;;;;;5054273;28;20183;-59
2022/01/31 01:04:40;;;;;;;5.80;3.17;;;17.00;51.80;;;;;;5055223;28;20178;-58
2022/01/31 01:07:05;;;;;;;6.65;3.33;;;17.00;51.80;;;;;;5054820;28;20191;-59
2022/01/31 01:09:31;;;;;;;5.53;3.33;;;17.00;51.80;;;;;;5054629;28;20171;-60
2022/01/31 01:11:56;;;;;;;5.30;3.38;;;17.00;51.90;;;;;;5055116;28;20167;-59
2022/01/31 01:14:22;;;;;;;4.75;2.90;;;17.00;51.80;;;;;;5055269;28;20181;-59
2022/01/31 01:16:48;;;;;;;6.50;3.00;;;17.00;51.80;;;;;;5053206;28;20176;-59
2022/01/31 01:19:13;;;;;;;4.38;2.80;;;17.00;51.80;;;;;;5054684;28;20627;-60
2022/01/31 01:21:38;;;;;;;4.63;3.05;;;17.00;51.80;;;;;;5054807;28;20642;-60
2022/01/31 01:24:04;;;;;;;5.28;3.33;;;17.00;52.40;;;;;;5054022;28;20179;-59
2022/01/31 01:26:29;;;;;;;7.95;3.70;;;17.00;51.70;;;;;;5054913;28;20228;-60
2022/01/31 01:28:55;;;;;;;6.40;3.22;;;16.90;51.70;;;;;;5054573;28;20210;-59
2022/01/31 01:31:20;;;;;;;6.55;3.47;;;16.90;51.80;;;;;;5054367;28;20171;-59
2022/01/31 01:33:46;;;;;;;4.75;2.90;;;16.90;51.70;;;;;;5054733;28;20248;-58
2022/01/31 01:36:12;;;;;;;6.20;3.42;;;16.90;51.70;;;;;;5054253;28;20689;-59
2022/01/31 01:38:37;;;;;;;4.72;3.22;;;16.90;51.80;;;;;;5054095;28;20183;-59
2022/01/31 01:41:03;;;;;;;5.13;2.85;;;16.90;51.90;;;;;;5054397;28;20175;-59
2022/01/31 01:43:30;;;;;;;5.15;3.10;;;16.90;51.80;;;;;;5053566;28;20258;-60
2022/01/31 01:45:55;;;;;;;5.32;3.17;;;16.90;51.80;;;;;;5054169;28;20271;-60
2022/01/31 01:48:21;;;;;;;6.13;3.45;;;16.80;51.70;;;;;;5054388;28;20282;-58
2022/01/31 01:50:47;;;;;;;6.85;3.25;;;16.90;51.80;;;;;;5053572;28;20258;-59
2022/01/31 01:53:12;;;;;;;5.13;3.35;;;16.80;51.90;;;;;;5053702;28;20230;-60
2022/01/31 01:55:38;;;;;;;4.18;2.88;;;16.80;51.80;;;;;;5054195;28;20175;-60
2022/01/31 01:58:05;;;;;;;5.03;2.72;;;16.80;51.80;;;;;;5053415;28;20206;-59
2022/01/31 02:00:49;;;;;;;5.78;3.00;;;16.80;51.80;;;;;;5054154;28;20649;-59
2022/01/31 02:03:14;;;;;;;5.13;2.78;;;16.80;51.70;;;;;;5053840;28;20560;-58
2022/01/31 02:05:40;;;;;;;4.63;3.05;;;16.80;51.90;;;;;;5053294;28;20611;-59
2022/01/31 02:08:10;;;;;;;5.05;2.72;;;16.80;51.90;;;;;;5053758;28;20206;-59
2022/01/31 02:10:35;;;;;;;3.72;2.90;;;16.70;51.80;;;;;;5052983;28;20182;-60
2022/01/31 02:13:05;;;;;;;5.45;2.78;;;16.80;51.80;;;;;;5053014;28;20171;-60
2022/01/31 02:15:31;;;;;;;4.53;2.63;;;16.70;51.70;;;;;;5053896;28;20203;-59
2022/01/31 02:17:56;;;;;;;3.97;2.20;;;16.70;51.70;;;;;;5053378;28;20260;-59
2022/01/31 02:20:22;;;;;;;5.90;3.08;;;16.70;51.80;;;;;;5053219;28;20194;-59
2022/01/31 02:22:47;;;;;;;7.07;2.97;;;16.70;51.90;;;;;;5053688;28;20646;-60
2022/01/31 02:25:13;;;;;;;3.50;2.67;;;16.70;51.90;;;;;;5052384;28;20186;-59
2022/01/31 02:27:39;;;;;;;4.72;2.83;;;16.70;51.80;;;;;;5053092;28;20211;-59
2022/01/31 02:30:17;;;;;;;5.68;2.80;;;16.70;51.90;;;;;;5053421;28;20193;-58
2022/01/31 02:32:42;;;;;;;3.72;2.22;;;16.70;51.80;;;;;;5053575;28;20578;-59
2022/01/31 02:35:08;;;;;;;4.22;2.33;;;16.70;51.90;;;;;;5052768;28;20175;-58
2022/01/31 02:37:34;;;;;;;3.75;2.50;;;16.70;51.90;;;;;;5053575;28;20269;-60
2022/01/31 02:39:59;;;;;;;3.45;2.50;;;16.70;51.90;;;;;;5052576;28;20254;-59
2022/01/31 02:42:25;;;;;;;4.05;2.55;;;16.70;51.90;;;;;;5053323;28;20618;-59
2022/01/31 02:44:51;;;;;;;5.00;2.90;;;16.70;51.90;;;;;;5053389;28;20175;-59
2022/01/31 02:47:24;;;;;;;5.15;2.70;;;16.70;51.90;;;;;;5052553;28;20210;-58
2022/01/31 02:49:56;;;;;;;4.20;2.70;;;16.70;51.90;;;;;;5053318;28;20510;-59
2022/01/31 02:52:23;;;;;;;4.95;3.03;;;16.70;52.00;;;;;;5053176;28;20235;-60
2022/01/31 02:54:49;;;;;;;3.60;2.05;;;16.60;51.90;;;;;;5052439;28;20314;-60
2022/01/31 02:57:14;;;;;;;3.90;2.58;;;16.60;51.90;;;;;;5052922;28;20602;-60
2022/01/31 02:59:40;;;;;;;5.63;2.90;;;16.60;52.00;;;;;;5053211;28;20707;-60
2022/01/31 03:02:05;;;;;;;3.92;2.35;;;16.60;52.70;;;;;;5052336;28;20171;-58
2022/01/31 03:04:31;;;;;;;6.00;2.60;;;16.60;52.10;;;;;;5053255;28;20171;-59
2022/01/31 03:06:56;;;;;;;3.42;2.55;;;16.60;52.00;;;;;;5052578;28;20193;-59
2022/01/31 03:09:22;;;;;;;4.53;2.20;;;16.60;52.00;;;;;;5052251;28;20529;-59
2022/01/31 03:11:47;;;;;;;3.70;2.25;;;16.60;52.10;;;;;;5052983;28;20171;-61
2022/01/31 03:14:16;;;;;;;5.03;2.72;;;16.60;52.10;;;;;;5052747;28;20175;-60
2022/01/31 03:16:44;;;;;;;3.75;2.40;;;16.60;52.00;;;;;;5052149;28;20642;-60
2022/01/31 03:19:09;;;;;;;4.75;2.42;;;16.60;52.10;;;;;;5052765;28;20174;-59
2022/01/31 03:21:35;;;;;;;3.78;2.70;;;16.60;52.10;;;;;;5052821;28;20266;-60
2022/01/31 03:24:01;;;;;;;3.63;2.22;;;16.60;52.20;;;;;;5051784;28;20175;-59
2022/01/31 03:26:26;;;;;;;4.00;2.15;;;16.60;52.20;;;;;;5052569;28;20171;-59
2022/01/31 03:28:53;;;;;;;6.28;2.78;;;16.60;52.30;;;;;;5052495;28;20210;-59
2022/01/31 03:31:19;;;;;;;4.15;2.28;;;16.50;52.20;;;;;;5051970;28;20179;-59
2022/01/31 03:33:48;;;;;;;2.90;2.17;;;16.60;52.20;;;;;;5052766;28;20183;-59
2022/01/31 03:36:14;;;;;;;3.47;2.28;;;16.50;52.20;;;;;;5051843;28;20167;-59
2022/01/31 03:38:41;;;;;;;3.13;2.40;;;16.50;52.30;;;;;;5052724;28;20648;-59
2022/01/31 03:41:13;;;;;;;2.78;2.10;;;16.50;52.30;;;;;;5052199;28;20689;-59
2022/01/31 03:43:39;;;;;;;2.88;2.15;;;16.50;52.40;;;;;;5052183;28;20167;-59
2022/01/31 03:46:05;;;;;;;3.88;2.30;;;16.50;52.40;;;;;;5052389;28;20233;-59
2022/01/31 03:48:31;;;;;;;3.28;2.30;;;16.50;52.40;;;;;;5052697;28;20215;-59
2022/01/31 03:50:57;;;;;;;3.50;2.10;;;16.50;52.40;;;;;;5051476;28;20206;-59
2022/01/31 03:53:22;;;;;;;3.20;2.40;;;16.50;52.30;;;;;;5052416;28;20205;-59
2022/01/31 03:55:48;;;;;;;4.88;2.75;;;16.50;52.40;;;;;;5052396;28;20167;-59
2022/01/31 03:58:13;;;;;;;3.63;2.10;;;16.50;52.40;;;;;;5051585;28;20388;-59
2022/01/31 04:00:39;;;;;;;3.45;1.95;;;16.50;52.40;;;;;;5052704;28;20175;-59
2022/01/31 04:03:05;;;;;;;4.15;2.17;;;16.50;52.50;;;;;;5052146;28;20207;-58
2022/01/31 04:05:31;;;;;;;2.85;1.90;;;16.40;52.50;;;;;;5051672;28;20167;-60
2022/01/31 04:07:57;;;;;;;3.45;2.03;;;16.40;52.50;;;;;;5055529;28;20218;-59
2022/01/31 04:10:23;;;;;;;3.95;2.42;;;16.40;52.50;;;;;;5056209;28;20271;-59
2022/01/31 04:12:49;;;;;;;2.90;1.90;;;16.40;52.50;;;;;;5055769;28;20203;-60
2022/01/31 04:15:14;;;;;;;2.85;1.77;;;16.40;52.60;;;;;;5055989;28;20225;-60
2022/01/31 04:17:40;;;;;;;4.43;2.58;;;16.40;52.60;;;;;;5056263;28;20653;-59
2022/01/31 04:20:10;;;;;;;2.92;2.15;;;16.40;52.60;;;;;;5055084;28;20543;-59
2022/01/31 04:22:41;;;;;;;2.95;1.90;;;16.40;52.60;;;;;;5056055;28;20183;-59
2022/01/31 04:25:16;;;;;;;3.05;1.77;;;16.40;52.60;;;;;;5055662;28;20171;-59
2022/01/31 04:27:45;;;;;;;1.98;1.55;;;16.40;52.60;;;;;;5055580;28;20696;-59
2022/01/31 04:30:13;;;;;;;3.60;2.00;;;16.40;52.70;;;;;;5055641;28;20171;-59
2022/01/31 04:32:38;;;;;;;3.80;1.95;;;16.30;52.70;;;;;;5055247;28;20179;-59
2022/01/31 04:35:04;;;;;;;4.63;2.30;;;16.40;52.60;;;;;;5055445;28;20167;-59
2022/01/31 04:37:29;;;;;;;2.85;2.00;;;16.40;52.70;;;;;;5055665;28;20175;-59
2022/01/31 04:39:55;;;;;;;3.08;2.10;;;16.40;52.70;;;;;;5054896;28;20626;-60
2022/01/31 04:42:20;;;;;;;3.00;2.00;;;16.30;52.70;;;;;;5055684;28;20206;-59
2022/01/31 04:44:48;;;;;;;3.67;2.13;;;16.30;52.70;;;;;;5055775;28;20247;-60
2022/01/31 04:47:13;;;;;;;5.03;2.00;;;16.30;52.80;;;;;;5054425;28;20203;-59
2022/01/31 04:49:39;;;;;;;3.47;1.98;;;16.30;52.80;;;;;;5055487;28;20186;-60
2022/01/31 04:52:04;;;;;;;2.88;1.73;;;16.30;52.80;;;;;;5054938;28;20222;-60
2022/01/31 04:54:30;;;;;;;4.05;1.73;;;16.30;52.70;;;;;;5054810;28;20185;-60
2022/01/31 04:56:55;;;;;;;2.50;1.67;;;16.30;52.80;;;;;;5055284;28;20280;-60
2022/01/31 04:59:21;;;;;;;2.83;1.83;;;16.30;52.80;;;;;;5055458;28;20194;-60
2022/01/31 05:01:48;;;;;;;2.00;1.35;;;16.30;52.80;;;;;;5054607;28;20189;-59
2022/01/31 05:04:14;;;;;;;3.97;1.83;;;16.30;52.80;;;;;;5054913;28;20175;-59
2022/01/31 05:06:42;;;;;;;3.28;2.03;;;16.30;52.80;;;;;;5055449;28;20182;-59
2022/01/31 05:09:09;;;;;;;3.15;1.75;;;16.30;52.80;;;;;;5054287;28;20609;-60
2022/01/31 05:11:35;;;;;;;4.00;2.13;;;16.30;52.90;;;;;;5055250;28;20175;-61
2022/01/31 05:14:01;;;;;;;3.58;2.03;;;16.20;52.80;;;;;;5054838;28;20228;-63
2022/01/31 05:16:26;;;;;;;4.07;2.30;;;16.30;52.90;;;;;;5054318;28;20626;-60
2022/01/31 05:18:52;;;;;;;3.45;1.65;;;16.30;53.00;;;;;;5053927;28;20213;-60
2022/01/31 05:21:18;;;;;;;3.15;1.77;;;16.20;52.90;;;;;;5054934;28;20171;-60
2022/01/31 05:23:44;;;;;;;3.15;1.98;;;16.30;53.00;;;;;;5055818;28;20183;-60
2022/01/31 05:26:09;;;;;;;3.42;1.80;;;16.30;53.00;;;;;;5055407;28;20183;-59
2022/01/31 05:28:35;;;;;;;4.90;1.85;;;16.30;53.00;;;;;;5054861;28;20214;-59
2022/01/31 05:31:00;;;;;;;2.80;1.40;;;16.20;52.90;;;;;;5054266;28;20178;-59
2022/01/31 05:33:26;;;;;;;3.45;1.50;;;16.20;52.90;;;;;;5054726;28;20179;-59
2022/01/31 05:35:52;;;;;;;4.03;2.00;;;16.20;53.00;;;;;;5053922;28;20657;-59
2022/01/31 05:38:18;;;;;;;2.40;1.88;;;16.20;53.00;;;;;;5054536;28;20657;-59
2022/01/31 05:40:43;;;;;;;3.75;1.80;;;16.20;53.00;;;;;;5054734;28;20175;-59
2022/01/31 05:43:09;;;;;;;3.75;1.83;;;16.20;53.10;;;;;;5053580;28;20181;-59
2022/01/31 05:45:34;;;;;;;3.15;1.65;;;16.20;53.00;;;;;;5054565;28;20171;-60
2022/01/31 05:48:00;;;;;;;2.10;1.70;;;16.20;53.00;;;;;;5053979;28;20203;-59
2022/01/31 05:50:25;;;;;;;3.83;1.70;;;16.20;53.10;;;;;;5053696;28;20709;-59
2022/01/31 05:52:51;;;;;;;4.57;2.17;;;16.10;53.10;;;;;;5054280;28;20226;-60
2022/01/31 05:55:17;;;;;;;3.67;2.00;;;16.10;53.00;;;;;;5053983;28;20603;-60
2022/01/31 05:57:42;;;;;;;2.10;1.52;;;16.10;53.00;;;;;;5052436;28;20638;-59
2022/01/31 06:00:08;;;;;;;2.75;2.05;;;16.10;53.00;;;;;;5053886;28;20211;-58
2022/01/31 06:02:35;;;;;;;2.97;1.73;;;16.10;53.00;;;;;;5054150;28;20183;-59
2022/01/31 06:05:01;;;;;;;4.35;2.00;;;16.10;53.00;;;;;;5053049;28;20171;-58
2022/01/31 06:07:27;;;;;;;3.75;2.17;;;16.10;53.10;;;;;;5054154;28;20203;-59
2022/01/31 06:09:52;;;;;;;2.50;1.83;;;16.10;53.10;;;;;;5053710;28;20617;-60
2022/01/31 06:12:18;;;;;;;3.20;1.75;;;16.10;53.00;;;;;;5053524;28;20168;-60
2022/01/31 06:14:43;;;;;;;3.10;1.73;;;16.10;53.00;;;;;;5053891;28;20175;-60
2022/01/31 06:17:09;;;;;;;3.25;1.58;;;16.10;53.10;;;;;;5053656;28;20186;-59
2022/01/31 06:19:34;;;;;;;3.42;1.90;;;16.00;53.10;;;;;;5053063;28;20262;-59
2022/01/31 06:22:00;;;;;;;3.95;1.80;;;16.10;53.10;;;;;;5053691;28;20167;-59
2022/01/31 06:24:26;;;;;;;3.85;1.52;;;16.10;53.20;;;;;;5053945;28;20199;-59
2022/01/31 06:26:51;;;;;;;2.03;1.20;;;16.00;53.10;;;;;;5053225;28;20179;-59
2022/01/31 06:29:17;;;;;;;3.22;1.65;;;16.00;53.10;;;;;;5053033;28;20673;-59
2022/01/31 06:31:45;;;;;;;3.53;1.65;;;16.00;53.70;;;;;;5053792;28;20528;-59
2022/01/31 06:34:11;;;;;;;1.75;1.35;;;16.00;53.10;;;;;;5052489;28;20678;-59
2022/01/31 06:36:36;;;;;;;2.75;1.60;;;16.00;53.00;;;;;;5053442;28;20198;-59
2022/01/31 06:39:02;;;;;;;3.30;1.80;;;16.00;53.10;;;;;;5052607;28;20183;-59
2022/01/31 06:41:28;;;;;;;2.58;1.30;;;16.00;53.10;;;;;;5053601;28;20276;-59
2022/01/31 06:43:54;;;;;;;3.30;1.83;;;16.00;53.10;;;;;;5052992;28;20650;-59
2022/01/31 06:46:19;;;;;;;3.72;2.08;;;16.00;53.10;;;;;;5052679;28;20272;-59
2022/01/31 06:48:45;;;;;;;2.63;1.55;;;16.00;53.10;;;;;;5053136;28;20305;-59
2022/01/31 06:51:10;;;;;;;2.55;1.70;;;16.00;53.10;;;;;;5052986;28;20198;-59
2022/01/31 06:53:36;;;;;;;4.10;1.80;;;16.00;53.10;;;;;;5052635;28;20187;-60
2022/01/31 06:56:02;;;;;;;2.95;1.55;;;16.00;53.10;;;;;;5052998;28;20171;-60
2022/01/31 06:58:27;;;;;;;2.97;1.70;;;16.00;53.10;;;;;;5053250;28;20217;-59
2022/01/31 07:00:54;;;;;;;3.70;2.00;;;16.00;53.10;;;;;;5052233;28;20186;-59
2022/01/31 07:03:19;;;;;;;3.20;1.50;;;15.90;53.10;;;;;;5053233;28;20661;-59
2022/01/31 07:05:45;;;;;;;3.10;1.90;;;16.00;53.10;;;;;;5053132;28;20202;-59
2022/01/31 07:08:11;;;;;;;3.17;1.73;;;16.00;53.20;;;;;;5052282;28;20210;-59
2022/01/31 07:10:38;;;;;;;3.00;1.77;;;16.00;53.10;;;;;;5053095;28;20237;-60
2022/01/31 07:13:12;;;;;;;3.80;1.45;;;16.10;53.70;;;;;;5052799;28;20259;-60
2022/01/31 07:15:38;;;;;;;2.15;1.25;;;16.10;53.10;;;;;;5052236;28;20550;-60
2022/01/31 07:18:03;;;;;;;3.03;1.60;;;16.10;53.00;;;;;;5052691;28;20634;-60
2022/01/31 07:20:37;;;;;;;1.60;1.08;;;16.20;53.20;;;;;;5053063;28;20186;-60
2022/01/31 07:23:09;;;;;;;3.38;1.73;;;16.30;53.10;;;;;;5052170;28;20261;-59
2022/01/31 07:25:35;;;;;;;2.38;1.63;;;16.40;53.10;;;;;;5053146;28;20183;-59
2022/01/31 07:28:02;;;;;;;3.08;1.50;;;16.50;53.00;;;;;;5052429;28;20250;-59
2022/01/31 07:30:27;;;;;;;2.80;1.23;;;16.50;52.80;;;;;;5051971;28;20249;-58
2022/01/31 07:32:53;;;;;;;2.80;1.33;;;16.60;52.80;;;;;;5052686;28;20630;-58
2022/01/31 07:35:19;;;;;;;2.10;1.40;;;16.70;52.70;;;;;;5052275;28;20270;-59
2022/01/31 07:37:44;;;;;;;2.65;1.30;;;16.90;52.60;;;;;;5052880;28;20202;-59
2022/01/31 07:40:10;;;;;;;2.75;1.50;;;17.10;52.30;;;;;;5052423;28;20646;-59
2022/01/31 07:42:36;;;;;;;2.22;1.25;;;17.30;52.10;;;;;;5055087;28;20556;-59
2022/01/31 07:45:01;;;;;;;1.70;1.20;;;17.50;51.60;;;;;;5056407;28;20171;-60
2022/01/31 07:47:27;;;;;;;1.15;0.90;;;17.60;51.30;;;;;;5056878;28;20202;-59
2022/01/31 07:49:52;;;;;;;1.25;1.13;;;17.80;51.10;;;;;;5055872;28;20208;-62
2022/01/31 07:52:18;;;;;;;3.58;1.02;;;17.90;51.10;;;;;;5056400;28;20226;-65
2022/01/31 07:54:44;;;;;;;4.93;1.52;;;17.90;50.90;;;;;;5056481;28;20175;-64
2022/01/31 07:57:10;;;;;;;1.25;1.05;;;18.00;51.00;;;;;;5055308;28;20179;-64
2022/01/31 07:59:35;;;;;;;1.85;1.33;;;18.10;50.90;;;;;;5056303;28;20645;-63
2022/01/31 08:02:01;;;;;;;4.32;2.10;;;18.10;51.00;;;;;;5064283;28;20185;-62
2022/01/31 08:04:26;;;;;;;3.58;1.42;;;18.10;51.40;;;;;;5060398;28;20170;-62
2022/01/31 08:06:52;;;;;;;3.00;1.38;;;18.10;51.50;;;;;;5076497;28;20170;-62
2022/01/31 08:09:17;;;;;;;4.57;1.88;;;18.10;51.60;;;;;;5065921;28;20218;-62
2022/01/31 08:11:43;;;;;;;5.38;1.52;;;18.10;51.70;;;;;;5055578;28;20167;-62
2022/01/31 08:14:10;;;;;;;2.25;1.10;;;18.10;51.80;;;;;;5055816;28;20167;-62
2022/01/31 08:16:36;;;;;;;5.72;1.60;;;18.10;51.90;;;;;;5056018;28;20183;-62
2022/01/31 08:19:05;;;;;;;3.47;1.63;;;18.10;52.00;;;;;;5074423;28;20170;-63
2022/01/31 08:21:30;;;;;;;1.58;1.15;;;18.10;52.00;;;;;;5076297;28;20170;-62
2022/01/31 08:23:56;;;;;;;2.88;1.80;;;18.00;52.00;;;;;;5075688;28;20171;-62
2022/01/31 08:26:21;;;;;;;4.05;1.75;;;18.10;52.10;;;;;;5075134;28;20174;-62
2022/01/31 08:31:24;;;;;;;3.17;1.38;;;18.10;52.60;;;;;;5075685;28;20177;-64
2022/01/31 08:36:21;;;;;;;4.25;1.40;;;18.20;51.90;;;;;;5055770;28;20651;-63
2022/01/31 08:38:47;;;;;;;2.90;1.50;;;18.20;51.90;;;;;;5054847;28;20692;-63
2022/01/31 08:41:13;;;;;;;2.53;1.27;;;18.20;51.80;;;;;;5055205;28;20685;-62
2022/01/31 08:43:38;;;;;;;3.45;1.63;;;18.20;51.90;;;;;;5055695;28;20236;-62
2022/01/31 08:46:04;;;;;;;3.75;1.77;;;18.20;51.80;;;;;;5054654;28;20209;-62
2022/01/31 08:48:30;;;;;;;4.75;1.80;;;18.30;51.90;;;;;;5055127;28;20207;-63
2022/01/31 08:50:56;;;;;;;3.85;1.75;;;18.30;51.80;;;;;;5055013;28;20178;-63
2022/01/31 08:53:21;;;;;;;4.25;1.70;;;18.30;51.70;;;;;;5054338;28;20214;-63
2022/01/31 08:55:54;;;;;;;3.03;1.58;;;18.40;51.70;;;;;;5054588;28;20174;-63
2022/01/31 08:58:21;;;;;;;3.53;1.55;;;18.30;51.70;;;;;;5038732;28;20233;-63
2022/01/31 09:00:49;;;;;;;3.05;1.38;;;18.40;51.60;;;;;;5054685;28;20258;-63
2022/01/31 09:05:40;;;;;;;5.07;1.85;;;18.40;51.60;;;;;;5055439;28;20634;-63
2022/01/31 09:08:06;;;;;;;3.63;1.63;;;18.40;51.50;;;;;;5055803;28;20211;-62
2022/01/31 09:10:32;;;;;;;3.35;1.98;;;18.40;51.50;;;;;;5075083;28;20171;-62
2022/01/31 09:12:57;;;;;;;4.50;1.77;;;18.40;51.50;;;;;;5056379;28;20183;-61
2022/01/31 09:15:23;;;;;;;4.18;1.63;;;18.50;51.40;;;;;;5054236;28;20567;-61
2022/01/31 09:17:49;;;;;;;4.75;1.65;;;18.50;51.50;;;;;;5055123;28;20186;-63
2022/01/31 09:20:14;;;;;;;7.45;1.73;;;18.40;51.50;;;;;;5054560;28;20186;-61
2022/01/31 09:22:41;;;;;;;2.90;1.17;;;18.40;51.50;;;;;;5053940;28;20175;-62
2022/01/31 09:25:07;;;;;;;5.95;2.17;;;18.50;51.50;;;;;;5054871;28;20270;-62
2022/01/31 09:27:33;;;;;;;4.72;2.20;;;18.50;51.50;;;;;;5055158;28;20332;-63
2022/01/31 09:29:59;;;;;;;3.42;1.77;;;18.40;51.50;;;;;;5053731;28;20175;-64
2022/01/31 09:32:25;;;;;;;2.90;1.85;;;18.40;51.50;;;;;;5054671;28;20183;-63
2022/01/31 09:34:50;;;;;;;3.80;2.00;;;18.50;51.50;;;;;;5053893;28;20182;-64
2022/01/31 09:37:19;;;;;;;6.47;2.20;;;18.50;51.50;;;;;;5054268;28;20631;-63
2022/01/31 09:39:46;;;;;;;2.90;1.45;;;18.40;51.50;;;;;;5054783;28;20205;-62
2022/01/31 09:42:14;;;;;;;4.35;1.60;;;18.40;51.60;;;;;;5053715;28;20186;-66
2022/01/31 09:47:21;;;;;;;3.38;1.55;;;18.50;51.60;;;;;;5054222;28;20182;-63
2022/01/31 09:49:46;;;;;;;3.45;1.70;;;18.50;51.60;;;;;;5053631;28;20265;-62
2022/01/31 09:52:12;;;;;;;4.90;2.13;;;18.40;51.50;;;;;;5053798;28;20780;-62
2022/01/31 09:54:37;;;;;;;5.65;1.92;;;18.50;51.50;;;;;;5054252;28;20179;-62
2022/01/31 09:57:03;;;;;;;4.93;2.20;;;18.50;51.30;;;;;;5053330;28;20250;-63
2022/01/31 09:59:29;;;;;;;5.10;1.98;;;18.40;51.30;;;;;;5054248;28;20248;-62
2022/01/31 10:01:55;;;;;;;5.35;1.88;;;18.40;51.30;;;;;;5053880;28;20189;-65
2022/01/31 10:04:34;;;;;;;5.38;1.60;;;18.40;51.20;;;;;;5052421;28;20179;-64
2022/01/31 10:07:03;;;;;;;4.45;1.77;;;18.40;51.40;;;;;;5052745;28;20322;-63
2022/01/31 10:09:30;;;;;;;3.58;1.60;;;18.40;51.50;;;;;;5054167;28;20665;-63
2022/01/31 10:12:05;;;;;;;4.05;1.73;;;18.50;51.60;;;;;;5052029;28;20188;-64
2022/01/31 10:17:26;;;;;;;4.03;1.73;;;18.50;51.50;;;;;;5050958;28;20194;-64
2022/01/31 10:19:55;;;;;;;3.45;1.83;;;18.50;51.60;;;;;;5053764;28;20179;-66
2022/01/31 10:22:21;;;;;;;4.50;1.58;;;18.50;51.60;;;;;;5053500;28;20266;-65
2022/01/31 10:24:48;;;;;;;3.70;1.85;;;18.40;51.70;;;;;;5052664;28;20167;-65
2022/01/31 10:27:28;;;;;;;7.55;1.98;;;18.30;51.70;;;;;;5053084;28;20297;-66
2022/01/31 10:29:55;;;;;;;5.97;2.22;;;18.20;51.60;;;;;;5053490;28;20202;-67
2022/01/31 10:32:31;;;;;;;4.05;2.10;;;18.10;51.80;;;;;;5052882;28;20171;-67
2022/01/31 10:34:58;;;;;;;5.30;1.85;;;18.10;51.80;;;;;;5053193;28;20597;-67
2022/01/31 10:37:25;;;;;;;5.68;1.92;;;18.00;51.80;;;;;;5053575;28;20237;-67
2022/01/31 10:53:49;;;;;;;5.20;2.50;;;18.10;51.60;;;;;;5052627;28;20183;-66
2022/01/31 10:56:15;;;;;;;5.80;2.45;;;18.20;51.60;;;;;;5052774;28;20295;-67
2022/01/31 10:59:00;;;;;;;5.50;2.15;;;18.20;51.50;;;;;;5052868;28;20233;-67
2022/01/31 11:01:26;;;;;;;6.45;2.33;;;18.20;51.50;;;;;;5052251;28;20183;-66
2022/01/31 11:03:56;;;;;;;4.25;2.00;;;18.20;51.50;;;;;;5052810;28;20210;-66
2022/01/31 11:06:23;;;;;;;5.55;2.35;;;18.10;51.40;;;;;;5052130;28;20175;-65
2022/01/31 11:08:48;;;;;;;6.82;2.38;;;18.10;51.50;;;;;;5060297;28;20213;-65
2022/01/31 11:11:14;;;;;;;4.70;1.85;;;18.00;51.60;;;;;;5072597;28;20175;-65
2022/01/31 11:13:39;;;;;;;7.65;2.38;;;18.00;51.70;;;;;;5072020;28;20185;-65
2022/01/31 11:16:08;;;;;;;5.45;1.85;;;17.90;51.70;;;;;;5071388;28;20513;-65
2022/01/31 11:18:34;;;;;;;5.00;2.35;;;17.90;51.90;;;;;;5072794;28;20186;-66
2022/01/31 11:21:07;;;;;;;4.47;2.60;;;18.00;51.90;;;;;;5071951;28;20167;-65
2022/01/31 11:23:38;;;;;;;4.72;2.58;;;18.00;51.90;;;;;;5072976;28;20171;-64
2022/01/31 11:26:04;;;;;;;7.60;1.98;;;18.00;51.90;;;;;;5072506;28;20295;-65
2022/01/31 11:28:31;;;;;;;6.57;2.33;;;18.00;51.90;;;;;;5071892;28;20214;-64
2022/01/31 11:30:56;;;;;;;4.82;2.15;;;18.00;51.80;;;;;;5072509;28;20177;-65
2022/01/31 11:33:23;;;;;;;4.65;2.25;;;18.00;51.80;;;;;;5072674;28;20175;-66
2022/01/31 11:35:49;;;;;;;5.13;2.10;;;18.10;51.80;;;;;;5072011;28;20186;-65
2022/01/31 11:38:16;;;;;;;8.32;2.10;;;18.00;51.80;;;;;;5072091;28;20219;-67
2022/01/31 11:40:41;;;;;;;5.78;2.40;;;18.00;51.70;;;;;;5071494;28;20170;-65
2022/01/31 11:43:06;;;;;;;4.78;1.90;;;18.00;51.80;;;;;;5071658;28;20178;-66
2022/01/31 11:45:39;;;;;;;4.38;2.10;;;18.00;51.90;;;;;;5054689;28;20635;-66
2022/01/31 11:48:10;;;;;;;5.07;2.03;;;17.90;51.90;;;;;;5071100;28;20217;-66
2022/01/31 11:50:43;;;;;;;5.65;2.53;;;17.90;52.00;;;;;;5071794;28;20178;-66
2022/01/31 11:53:09;;;;;;;8.15;2.90;;;17.80;52.10;;;;;;5071963;28;20222;-67
2022/01/31 11:55:36;;;;;;;4.72;2.17;;;17.80;52.10;;;;;;5071981;28;20567;-66
2022/01/31 11:58:02;;;;;;;4.65;1.70;;;17.80;52.20;;;;;;5072346;28;20184;-67
2022/01/31 12:00:28;;;;;;;4.35;2.13;;;17.90;52.20;;;;;;5071138;28;20171;-66
2022/01/31 12:03:05;;;;;;;4.25;1.85;;;17.80;52.10;;;;;;5063547;28;20179;-65
2022/01/31 12:05:32;;;;;;;4.50;1.65;;;17.90;52.20;;;;;;5052360;28;20175;-65
2022/01/31 12:08:14;;;;;;;5.35;2.38;;;17.90;52.10;;;;;;5052517;28;20215;-63
2022/01/31 12:10:43;;;;;;;4.03;1.98;;;17.90;52.10;;;;;;5071589;28;20607;-65
2022/01/31 12:13:34;;;;;;;4.30;1.70;;;17.90;52.20;;;;;;5072006;28;20254;-64
2022/01/31 12:23:39;;;;;;;4.03;1.90;;;17.70;52.40;;;;;;5071850;28;20579;-64
2022/01/31 12:26:51;;;;;;;4.60;1.92;;;17.70;52.40;;;;;;5071916;28;20171;-64
2022/01/31 12:29:24;;;;;;;4.57;1.65;;;17.80;52.50;;;;;;5075487;28;20218;-65
2022/01/31 12:31:55;;;;;;;4.05;1.77;;;17.70;52.40;;;;;;5075022;28;20174;-65
2022/01/31 12:34:21;;;;;;;4.18;2.13;;;17.80;52.40;;;;;;5075787;28;20257;-65
2022/01/31 12:36:50;;;;;;;5.68;1.73;;;17.80;52.30;;;;;;5075650;28;20652;-66
2022/01/31 12:39:42;;;;;;;4.38;1.98;;;17.80;52.30;;;;;;5074595;28;20642;-65
2022/01/31 12:45:11;;;;;;;3.30;1.70;;;17.80;52.30;;;;;;5074576;28;20185;-65
2022/01/31 12:47:36;;;;;;;4.70;2.42;;;17.80;52.30;;;;;;5075669;28;20202;-63
2022/01/31 12:50:24;;;;;;;3.42;1.70;;;17.80;52.40;;;;;;5075204;28;20222;-63
2022/01/31 12:52:49;;;;;;;5.40;2.10;;;17.70;52.40;;;;;;5074663;28;20229;-63
2022/01/31 12:55:15;;;;;;;4.07;2.05;;;17.70;52.60;;;;;;5075007;28;20174;-62
2022/01/31 12:57:51;;;;;;;5.03;1.80;;;17.70;52.60;;;;;;5074850;28;20170;-64
2022/01/31 13:00:19;;;;;;;3.00;1.92;;;17.80;52.70;;;;;;5074596;28;20182;-64
2022/01/31 13:02:50;;;;;;;6.13;1.90;;;17.70;52.70;;;;;;5067349;28;20181;-64
2022/01/31 13:05:29;;;;;;;3.50;1.88;;;17.80;52.70;;;;;;5054701;28;20609;-64
2022/01/31 13:07:54;;;;;;;4.32;2.05;;;17.80;52.70;;;;;;5054153;28;20215;-64
2022/01/31 13:10:20;;;;;;;4.45;1.75;;;18.00;52.70;;;;;;5075177;28;20177;-64
2022/01/31 13:12:57;;;;;;;3.83;2.00;;;18.00;52.50;;;;;;5075192;28;20171;-61
2022/01/31 13:15:23;;;;;;;5.20;1.77;;;18.10;52.60;;;;;;5075125;28;20198;-61
2022/01/31 13:17:48;;;;;;;5.63;1.77;;;18.20;52.50;;;;;;5074969;28;20205;-62
2022/01/31 13:20:14;;;;;;;4.88;1.80;;;18.20;52.30;;;;;;5074026;28;20202;-63
2022/01/31 13:22:41;;;;;;;3.08;1.55;;;18.30;52.10;;;;;;5074859;28;20179;-63
2022/01/31 13:25:11;;;;;;;2.90;1.52;;;18.40;51.90;;;;;;5073495;28;20174;-62